createdAt,value
2023-04-27T00:01:12.440Z,5.24
2023-04-27T00:03:41.436Z,5.02
2023-04-27T00:06:10.940Z,5.58
2023-04-27T00:08:38.990Z,5.49
2023-04-27T00:11:07.063Z,5.41
2023-04-27T00:13:34.945Z,5.29
2023-04-27T00:16:03.885Z,5.53
2023-04-27T00:18:31.981Z,5.38
2023-04-27T00:21:01.288Z,5.33
2023-04-27T00:23:30.591Z,5.50
2023-04-27T00:25:58.546Z,5.38
2023-04-27T00:28:26.829Z,5.42
2023-04-27T00:30:56.640Z,5.16
2023-04-27T00:33:26.879Z,5.31
2023-04-27T00:35:55.531Z,4.98
2023-04-27T00:38:23.794Z,5.03
2023-04-27T00:40:53.075Z,4.91
2023-04-27T00:43:21.680Z,4.90
2023-04-27T00:45:49.872Z,4.81
2023-04-27T00:48:17.926Z,4.94
2023-04-27T00:50:48.114Z,5.12
2023-04-27T00:53:16.399Z,5.08
2023-04-27T00:55:44.693Z,4.99
2023-04-27T00:58:13.971Z,4.75
2023-04-27T01:00:42.284Z,4.46
2023-04-27T01:03:13.279Z,3.94
2023-04-27T01:05:41.379Z,4.13
2023-04-27T01:08:09.709Z,4.36
2023-04-27T01:10:38.542Z,4.35
2023-04-27T01:13:06.443Z,4.38
2023-04-27T01:15:35.707Z,4.42
2023-04-27T01:18:04.619Z,4.34
2023-04-27T01:20:32.862Z,4.35
2023-04-27T01:23:01.041Z,4.34
2023-04-27T01:25:30.353Z,4.17
2023-04-27T01:27:58.253Z,4.14
2023-04-27T01:30:28.487Z,4.25
2023-04-27T01:32:56.467Z,4.23
2023-04-27T01:35:26.292Z,4.06
2023-04-27T01:37:55.569Z,4.15
2023-04-27T01:40:23.478Z,4.06
2023-04-27T01:42:52.750Z,3.89
2023-04-27T01:45:20.674Z,4.02
2023-04-27T01:47:48.597Z,3.97
2023-04-27T01:50:16.486Z,3.91
2023-04-27T01:52:44.428Z,3.94
2023-04-27T01:55:12.273Z,3.92
2023-04-27T01:57:40.322Z,3.91
2023-04-27T02:00:10.990Z,3.99
2023-04-27T02:02:53.721Z,3.58
2023-04-27T02:05:22.159Z,3.77
2023-04-27T02:07:51.065Z,3.86
2023-04-27T02:10:19.411Z,3.84
2023-04-27T02:12:47.250Z,4.10
2023-04-27T02:15:16.646Z,3.64
2023-04-27T02:17:46.324Z,3.82
2023-04-27T02:20:14.704Z,3.84
2023-04-27T02:22:43.862Z,3.82
2023-04-27T02:25:12.042Z,3.70
2023-04-27T02:27:40.189Z,3.65
2023-04-27T02:30:10.196Z,3.40
2023-04-27T02:32:40.084Z,3.76
2023-04-27T02:35:08.951Z,3.41
2023-04-27T02:37:39.176Z,3.66
2023-04-27T02:40:09.446Z,3.92
2023-04-27T02:42:38.905Z,3.81
2023-04-27T02:45:08.773Z,3.67
2023-04-27T02:47:39.089Z,3.74
2023-04-27T02:50:07.969Z,3.80
2023-04-27T02:52:36.834Z,3.87
2023-04-27T02:55:04.841Z,3.73
2023-04-27T02:57:32.734Z,3.72
2023-04-27T03:00:00.810Z,3.53
2023-04-27T03:02:29.227Z,3.44
2023-04-27T03:04:59.310Z,3.45
2023-04-27T03:07:27.725Z,3.42
2023-04-27T03:09:55.692Z,3.45
2023-04-27T03:12:23.616Z,3.42
2023-04-27T03:14:51.684Z,3.39
2023-04-27T03:17:19.830Z,3.30
2023-04-27T03:19:49.851Z,3.50
2023-04-27T03:22:19.257Z,3.29
2023-04-27T03:24:47.143Z,3.35
2023-04-27T03:27:15.188Z,3.07
2023-04-27T03:29:43.669Z,3.07
2023-04-27T03:32:12.978Z,3.24
2023-04-27T03:34:41.387Z,3.24
2023-04-27T03:37:09.645Z,3.11
2023-04-27T03:39:39.658Z,3.16
2023-04-27T03:42:07.605Z,3.25
2023-04-27T03:44:36.466Z,3.17
2023-04-27T03:47:09.075Z,3.08
2023-04-27T03:49:39.088Z,3.14
2023-04-27T03:52:08.404Z,3.02
2023-04-27T03:54:37.134Z,2.92
2023-04-27T03:57:06.477Z,2.81
2023-04-27T03:59:34.415Z,2.96
2023-04-27T04:02:03.918Z,3.04
2023-04-27T04:04:32.384Z,2.89
2023-04-27T04:07:00.334Z,2.88
2023-04-27T04:09:28.746Z,2.91
2023-04-27T04:11:57.887Z,2.75
2023-04-27T04:14:28.716Z,2.72
2023-04-27T04:16:57.116Z,2.78
2023-04-27T04:19:25.794Z,2.88
2023-04-27T04:21:54.722Z,2.65
2023-04-27T04:24:22.666Z,2.76
2023-04-27T04:26:50.557Z,3.09
2023-04-27T04:29:19.352Z,3.00
2023-04-27T04:31:48.669Z,3.02
2023-04-27T04:34:16.584Z,2.84
2023-04-27T04:36:44.714Z,2.95
2023-04-27T04:39:13.729Z,3.08
2023-04-27T04:41:42.118Z,3.24
2023-04-27T04:44:12.255Z,3.31
2023-04-27T04:46:40.216Z,3.27
2023-04-27T04:49:09.646Z,3.36
2023-04-27T04:51:37.996Z,3.36
2023-04-27T04:54:07.078Z,3.23
2023-04-27T04:56:35.073Z,3.27
2023-04-27T04:59:04.382Z,3.48
2023-04-27T05:01:33.429Z,3.84
2023-04-27T05:04:01.588Z,3.93
2023-04-27T05:06:31.783Z,3.95
2023-04-27T05:08:59.690Z,4.06
2023-04-27T05:11:27.620Z,4.12
2023-04-27T05:13:56.008Z,3.99
2023-04-27T05:16:23.986Z,4.19
2023-04-27T05:18:51.946Z,4.61
2023-04-27T05:21:20.910Z,4.49
2023-04-27T05:23:50.252Z,4.35
2023-04-27T05:26:19.280Z,4.75
2023-04-27T05:28:49.299Z,4.69
2023-04-27T05:31:17.280Z,4.87
2023-04-27T05:33:45.652Z,5.29
2023-04-27T05:36:13.668Z,5.69
2023-04-27T05:38:41.630Z,5.66
2023-04-27T05:41:11.046Z,5.79
2023-04-27T05:43:39.255Z,6.09
2023-04-27T05:46:07.240Z,6.08
2023-04-27T05:48:35.567Z,6.38
2023-04-27T05:51:04.433Z,6.53
2023-04-27T05:53:33.977Z,6.53
2023-04-27T05:56:04.342Z,6.75
2023-04-27T05:58:34.102Z,6.89
2023-04-27T06:01:03.454Z,7.05
2023-04-27T06:03:32.229Z,6.87
2023-04-27T06:06:01.863Z,6.95
2023-04-27T06:08:30.745Z,7.01
2023-04-27T06:10:58.716Z,7.38
2023-04-27T06:13:27.022Z,7.46
2023-04-27T06:15:56.404Z,7.52
2023-04-27T06:18:24.377Z,7.73
2023-04-27T06:20:52.225Z,8.08
2023-04-27T06:23:20.415Z,8.15
2023-04-27T06:25:48.566Z,8.30
2023-04-27T06:28:16.514Z,8.61
2023-04-27T06:30:44.446Z,8.37
2023-04-27T06:33:13.759Z,8.51
2023-04-27T06:35:41.964Z,8.11
2023-04-27T06:38:09.935Z,8.61
2023-04-27T06:40:37.951Z,8.36
2023-04-27T06:43:05.837Z,8.14
2023-04-27T06:45:33.719Z,8.92
2023-04-27T06:48:01.672Z,8.86
2023-04-27T06:50:31.103Z,8.38
2023-04-27T06:52:59.045Z,8.41
2023-04-27T06:55:26.945Z,8.57
2023-04-27T06:57:54.855Z,8.66
2023-04-27T07:00:22.892Z,8.95
2023-04-27T07:02:52.509Z,9.16
2023-04-27T07:05:20.528Z,8.88
2023-04-27T07:07:49.869Z,9.61
2023-04-27T07:10:17.819Z,9.97
2023-04-27T07:12:45.737Z,9.80
2023-04-27T07:15:13.707Z,9.87
2023-04-27T07:17:41.756Z,9.26
2023-04-27T07:20:10.410Z,9.23
2023-04-27T07:22:38.284Z,9.58
2023-04-27T07:25:08.465Z,9.68
2023-04-27T07:27:36.679Z,9.97
2023-04-27T07:30:05.843Z,10.21
2023-04-27T07:32:33.918Z,10.46
2023-04-27T07:35:01.863Z,11.13
2023-04-27T07:37:29.895Z,10.69
2023-04-27T07:39:59.592Z,10.72
2023-04-27T07:42:28.919Z,10.88
2023-04-27T07:44:57.483Z,10.70
2023-04-27T07:47:25.486Z,10.52
2023-04-27T07:49:53.319Z,10.36
2023-04-27T07:52:21.383Z,10.15
2023-04-27T07:54:49.245Z,10.63
2023-04-27T07:57:17.166Z,11.02
2023-04-27T07:59:47.444Z,11.15
2023-04-27T08:02:19.599Z,11.06
2023-04-27T08:04:48.453Z,11.24
2023-04-27T08:07:17.615Z,11.47
2023-04-27T08:09:45.891Z,11.65
2023-04-27T08:12:13.814Z,11.34
2023-04-27T08:14:42.023Z,11.32
2023-04-27T08:17:11.817Z,11.89
2023-04-27T08:19:40.200Z,12.11
2023-04-27T08:22:08.598Z,12.06
2023-04-27T08:24:36.545Z,12.07
2023-04-27T08:27:04.770Z,11.85
2023-04-27T08:29:33.040Z,11.33
2023-04-27T08:32:03.324Z,11.99
2023-04-27T08:34:32.767Z,11.94
2023-04-27T08:37:00.674Z,11.49
2023-04-27T08:39:28.812Z,12.63
2023-04-27T08:41:56.936Z,11.48
2023-04-27T08:44:24.854Z,11.91
2023-04-27T08:46:52.997Z,11.93
2023-04-27T08:49:21.885Z,12.37
2023-04-27T08:51:51.352Z,12.58
2023-04-27T08:54:20.678Z,12.66
2023-04-27T08:56:48.717Z,12.15
2023-04-27T08:59:17.890Z,12.36
2023-04-27T09:01:47.061Z,11.68
2023-04-27T09:04:15.872Z,12.58
2023-04-27T09:06:43.976Z,13.45
2023-04-27T09:09:23.445Z,12.53
2023-04-27T09:11:51.451Z,12.26
2023-04-27T09:14:21.318Z,12.65
2023-04-27T09:16:56.177Z,12.52
2023-04-27T09:19:28.568Z,11.72
2023-04-27T09:22:10.936Z,12.13
2023-04-27T09:24:40.434Z,12.26
2023-04-27T09:27:09.350Z,12.12
2023-04-27T09:29:38.838Z,12.86
2023-04-27T09:32:17.724Z,13.11
2023-04-27T09:34:46.109Z,13.09
2023-04-27T09:37:15.313Z,13.29
2023-04-27T09:39:46.188Z,13.36
2023-04-27T09:42:15.918Z,12.52
2023-04-27T09:44:43.888Z,12.18
2023-04-27T09:47:12.179Z,12.96
2023-04-27T09:49:40.212Z,13.07
2023-04-27T09:52:08.154Z,12.95
2023-04-27T09:54:37.604Z,13.21
2023-04-27T09:57:20.109Z,12.94
2023-04-27T10:00:01.705Z,13.69
2023-04-27T10:02:53.159Z,13.53
2023-04-27T10:05:51.918Z,13.87
2023-04-27T10:08:21.267Z,13.87
2023-04-27T10:10:49.957Z,14.73
2023-04-27T10:13:27.442Z,14.36
2023-04-27T10:15:55.514Z,14.79
2023-04-27T10:18:28.659Z,14.52
2023-04-27T10:20:56.594Z,13.84
2023-04-27T10:23:26.430Z,13.64
2023-04-27T10:25:55.793Z,14.28
2023-04-27T10:28:25.214Z,14.94
2023-04-27T10:30:53.172Z,14.68
2023-04-27T10:33:24.829Z,14.90
2023-04-27T10:35:58.032Z,14.78
2023-04-27T10:38:29.675Z,14.33
2023-04-27T10:41:01.563Z,14.65
2023-04-27T10:43:32.081Z,14.20
2023-04-27T10:46:08.756Z,15.18
2023-04-27T10:48:36.850Z,14.64
2023-04-27T10:51:04.926Z,15.37
2023-04-27T10:53:35.772Z,16.76
2023-04-27T10:56:05.198Z,16.41
2023-04-27T10:58:45.364Z,17.06
2023-04-27T11:01:25.252Z,18.75
2023-04-27T11:03:56.485Z,17.57
2023-04-27T11:06:24.721Z,18.68
2023-04-27T11:08:52.710Z,19.23
2023-04-27T11:11:20.991Z,18.95
2023-04-27T11:13:52.856Z,20.18
2023-04-27T11:16:20.909Z,18.98
2023-04-27T11:18:48.827Z,19.41
2023-04-27T11:21:20.410Z,17.86
2023-04-27T11:23:48.689Z,17.72
2023-04-27T11:26:18.080Z,18.91
2023-04-27T11:28:58.021Z,19.10
2023-04-27T11:31:27.919Z,19.09
2023-04-27T11:33:56.347Z,17.62
2023-04-27T11:36:26.709Z,18.71
2023-04-27T11:38:59.867Z,17.63
2023-04-27T11:41:35.176Z,17.45
2023-04-27T11:44:08.412Z,18.51
2023-04-27T11:46:38.836Z,18.85
2023-04-27T11:49:08.833Z,19.17
2023-04-27T11:51:37.666Z,20.94
2023-04-27T11:54:07.291Z,20.89
2023-04-27T11:56:36.660Z,21.19
2023-04-27T11:59:05.276Z,20.18
2023-04-27T12:01:37.952Z,19.92
2023-04-27T12:04:08.305Z,21.06
2023-04-27T12:06:36.540Z,22.06
2023-04-27T12:09:05.382Z,21.26
2023-04-27T12:11:33.916Z,21.75
2023-04-27T12:14:02.212Z,21.76
2023-04-27T12:16:30.209Z,23.18
2023-04-27T12:18:58.346Z,23.24
2023-04-27T12:21:27.666Z,23.80
2023-04-27T12:23:55.839Z,24.42
2023-04-27T12:26:23.926Z,24.96
2023-04-27T12:28:51.764Z,25.55
2023-04-27T12:31:27.658Z,23.56
2023-04-27T12:33:55.905Z,23.35
2023-04-27T12:36:23.983Z,24.77
2023-04-27T12:38:53.418Z,24.86
2023-04-27T12:41:21.481Z,21.44
2023-04-27T12:43:49.529Z,22.75
2023-04-27T12:46:18.312Z,23.12
2023-04-27T12:48:46.416Z,25.18
2023-04-27T12:51:14.626Z,25.75
2023-04-27T12:53:42.556Z,26.65
2023-04-27T12:56:12.551Z,26.09
2023-04-27T12:58:41.709Z,25.43
2023-04-27T13:01:14.795Z,25.45
2023-04-27T13:03:42.997Z,27.29
2023-04-27T13:06:11.396Z,25.90
2023-04-27T13:08:39.820Z,25.62
2023-04-27T13:11:08.072Z,24.95
2023-04-27T13:13:37.416Z,23.78
2023-04-27T13:16:05.531Z,25.11
2023-04-27T13:18:35.028Z,24.93
2023-04-27T13:21:05.184Z,25.02
2023-04-27T13:23:33.181Z,25.77
2023-04-27T13:26:01.350Z,25.86
2023-04-27T13:28:29.398Z,25.05
2023-04-27T13:31:00.183Z,23.02
2023-04-27T13:33:28.513Z,24.89
2023-04-27T13:35:56.496Z,27.28
2023-04-27T13:38:24.721Z,27.77
2023-04-27T13:40:52.688Z,26.74
2023-04-27T13:43:20.577Z,26.45
2023-04-27T13:45:49.572Z,27.31
2023-04-27T13:48:19.384Z,26.85
2023-04-27T13:50:47.677Z,26.13
2023-04-27T13:53:16.710Z,28.91
2023-04-27T13:55:44.759Z,27.96
2023-04-27T13:58:13.329Z,28.42
2023-04-27T14:00:41.418Z,28.91
2023-04-27T14:03:15.621Z,29.38
2023-04-27T14:05:48.276Z,25.60
2023-04-27T14:08:16.354Z,25.44
2023-04-27T14:10:47.111Z,26.93
2023-04-27T14:13:15.393Z,27.91
2023-04-27T14:15:43.392Z,26.31
2023-04-27T14:18:11.582Z,25.30
2023-04-27T14:20:40.317Z,24.57
2023-04-27T14:23:10.528Z,23.37
2023-04-27T14:25:39.173Z,23.87
2023-04-27T14:28:09.619Z,23.57
2023-04-27T14:30:37.578Z,26.07
2023-04-27T14:33:05.568Z,25.61
2023-04-27T14:35:35.563Z,24.17
2023-04-27T14:38:03.745Z,25.16
2023-04-27T14:40:33.618Z,24.32
2023-04-27T14:43:01.587Z,24.46
2023-04-27T14:45:39.732Z,27.53
2023-04-27T14:48:16.434Z,26.52
2023-04-27T14:50:44.299Z,25.76
2023-04-27T14:53:12.242Z,25.12
2023-04-27T14:55:44.153Z,24.48
2023-04-27T14:58:12.168Z,23.44
2023-04-27T15:00:40.974Z,21.66
2023-04-27T15:03:09.102Z,23.25
2023-04-27T15:05:37.218Z,23.56
2023-04-27T15:08:05.114Z,23.40
2023-04-27T15:10:32.980Z,24.03
2023-04-27T15:13:03.099Z,23.04
2023-04-27T15:15:31.107Z,23.58
2023-04-27T15:17:59.544Z,22.83
2023-04-27T15:20:27.628Z,22.34
2023-04-27T15:22:55.606Z,22.07
2023-04-27T15:25:23.563Z,21.12
2023-04-27T15:27:51.475Z,21.34
2023-04-27T15:30:20.773Z,20.67
2023-04-27T15:32:49.547Z,20.17
2023-04-27T15:35:17.582Z,19.70
2023-04-27T15:37:45.576Z,19.21
2023-04-27T15:40:13.804Z,18.82
2023-04-27T15:42:41.797Z,19.09
2023-04-27T15:45:11.034Z,18.60
2023-04-27T15:50:09.380Z,18.25
2023-04-27T15:52:37.311Z,18.58
2023-04-27T15:55:05.945Z,18.73
2023-04-27T15:57:33.808Z,18.43
2023-04-27T16:00:01.829Z,19.41
2023-04-27T16:02:38.747Z,19.31
2023-04-27T16:05:09.516Z,18.99
2023-04-27T16:07:39.444Z,18.57
2023-04-27T16:10:08.714Z,18.17
2023-04-27T16:12:36.722Z,18.21
2023-04-27T16:15:05.017Z,18.61
2023-04-27T16:17:35.798Z,17.75
2023-04-27T16:20:06.420Z,17.51
2023-04-27T16:22:36.113Z,14.83
2023-04-27T16:25:06.535Z,15.08
2023-04-27T16:27:34.531Z,14.85
2023-04-27T16:30:02.482Z,14.93
2023-04-27T16:32:31.469Z,14.97
2023-04-27T16:35:01.022Z,15.38
2023-04-27T16:37:29.031Z,15.52
2023-04-27T16:40:01.373Z,15.14
2023-04-27T16:42:29.741Z,14.33
2023-04-27T16:44:57.737Z,14.39
2023-04-27T16:47:25.626Z,14.73
2023-04-27T16:49:53.469Z,14.81
2023-04-27T16:52:21.396Z,13.70
2023-04-27T16:54:49.302Z,13.80
2023-04-27T16:57:18.753Z,14.22
2023-04-27T16:59:46.740Z,13.84
2023-04-27T17:02:24.314Z,14.19
2023-04-27T17:04:53.448Z,13.93
2023-04-27T17:07:21.472Z,14.02
2023-04-27T17:09:49.656Z,13.92
2023-04-27T17:12:19.062Z,13.51
2023-04-27T17:14:47.238Z,13.46
2023-04-27T17:17:15.167Z,13.62
2023-04-27T17:19:43.060Z,13.70
2023-04-27T17:22:13.320Z,13.30
2023-04-27T17:24:41.399Z,13.22
2023-04-27T17:27:09.351Z,12.90
2023-04-27T17:29:38.635Z,12.77
2023-04-27T17:32:06.809Z,12.53
2023-04-27T17:34:34.700Z,12.23
2023-04-27T17:37:02.791Z,12.07
2023-04-27T17:39:30.742Z,11.90
2023-04-27T17:41:58.839Z,12.05
2023-04-27T17:44:26.771Z,12.06
2023-04-27T17:46:56.354Z,11.85
2023-04-27T17:49:24.399Z,11.76
2023-04-27T17:51:52.357Z,11.73
2023-04-27T17:54:20.277Z,11.38
2023-04-27T17:56:48.215Z,11.27
2023-04-27T17:59:16.496Z,11.11
2023-04-27T18:01:44.738Z,11.01
2023-04-27T18:04:14.093Z,11.05
2023-04-27T18:06:42.376Z,10.76
2023-04-27T18:09:10.286Z,10.59
2023-04-27T18:11:38.265Z,10.54
2023-04-27T18:14:06.162Z,10.44
2023-04-27T18:16:34.152Z,10.29
2023-04-27T18:19:03.226Z,10.35
2023-04-27T18:21:32.730Z,10.21
2023-04-27T18:24:00.751Z,10.30
2023-04-27T18:26:28.734Z,9.88
2023-04-27T18:28:58.555Z,10.17
2023-04-27T18:31:26.788Z,10.03
2023-04-27T18:33:54.884Z,9.85
2023-04-27T18:36:27.866Z,10.07
2023-04-27T18:38:58.371Z,9.88
2023-04-27T18:41:26.605Z,9.92
2023-04-27T18:43:54.593Z,9.82
2023-04-27T18:46:22.535Z,9.74
2023-04-27T18:48:50.441Z,9.79
2023-04-27T18:51:18.321Z,9.79
2023-04-27T18:53:46.413Z,9.68
2023-04-27T18:56:15.731Z,9.63
2023-04-27T18:58:43.942Z,9.68
2023-04-27T19:01:21.114Z,9.57
2023-04-27T19:03:49.391Z,9.51
2023-04-27T19:06:18.942Z,9.52
2023-04-27T19:08:48.801Z,9.50
2023-04-27T19:11:22.054Z,9.38
2023-04-27T19:13:51.458Z,9.42
2023-04-27T19:16:19.491Z,9.48
2023-04-27T19:18:47.648Z,9.35
2023-04-27T19:21:15.533Z,9.33
2023-04-27T19:23:45.073Z,9.34
2023-04-27T19:26:14.152Z,9.28
2023-04-27T19:28:43.855Z,9.35
2023-04-27T19:31:11.796Z,9.16
2023-04-27T19:33:46.844Z,9.17
2023-04-27T19:36:15.160Z,9.23
2023-04-27T19:38:42.987Z,9.17
2023-04-27T19:41:13.874Z,9.17
2023-04-27T19:43:43.354Z,9.17
2023-04-27T19:46:11.399Z,9.12
2023-04-27T19:48:39.511Z,9.14
2023-04-27T19:51:10.337Z,9.20
2023-04-27T19:53:38.312Z,9.12
2023-04-27T19:56:06.496Z,9.21
2023-04-27T19:58:35.901Z,9.11
2023-04-27T20:01:06.285Z,9.20
2023-04-27T20:03:35.713Z,9.24
2023-04-27T20:06:04.315Z,9.11
2023-04-27T20:08:34.090Z,9.09
2023-04-27T20:11:02.186Z,9.21
2023-04-27T20:13:30.056Z,9.14
2023-04-27T20:15:59.200Z,8.91
2023-04-27T20:18:31.866Z,8.94
2023-04-27T20:20:59.842Z,8.95
2023-04-27T20:23:27.797Z,9.11
2023-04-27T20:25:55.849Z,8.96
2023-04-27T20:28:23.861Z,8.97
2023-04-27T20:30:51.688Z,8.98
2023-04-27T20:33:33.947Z,9.02
2023-04-27T20:36:14.058Z,9.01
2023-04-27T20:38:45.988Z,8.96
2023-04-27T20:41:14.421Z,8.88
2023-04-27T20:43:44.715Z,8.85
2023-04-27T20:46:13.203Z,8.76
2023-04-27T20:48:41.314Z,8.96
2023-04-27T20:51:10.804Z,8.87
2023-04-27T20:53:39.993Z,8.76
2023-04-27T20:56:09.087Z,8.81
2023-04-27T20:58:36.985Z,8.77
2023-04-27T21:01:05.046Z,8.87
2023-04-27T21:03:33.292Z,8.74
2023-04-27T21:06:01.459Z,8.79
2023-04-27T21:08:30.827Z,8.81
2023-04-27T21:10:58.720Z,8.79
2023-04-27T21:13:26.844Z,8.69
2023-04-27T21:15:54.804Z,8.68
2023-04-27T21:18:30.302Z,8.66
2023-04-27T21:20:58.769Z,8.60
2023-04-27T21:23:26.849Z,8.63
2023-04-27T21:25:56.261Z,8.50
2023-04-27T21:28:24.316Z,8.63
2023-04-27T21:30:52.328Z,8.38
2023-04-27T21:33:20.344Z,8.53
2023-04-27T21:35:51.481Z,8.41
2023-04-27T21:38:19.464Z,8.48
2023-04-27T21:40:51.288Z,8.39
2023-04-27T21:43:20.582Z,8.27
2023-04-27T21:45:48.684Z,8.35
2023-04-27T21:48:16.622Z,8.40
2023-04-27T21:50:45.222Z,8.42
2023-04-27T21:53:13.122Z,8.20
2023-04-27T21:55:41.096Z,8.05
2023-04-27T21:58:09.078Z,8.09
2023-04-27T22:00:38.383Z,7.94
2023-04-27T22:03:06.378Z,7.95
2023-04-27T22:05:37.059Z,8.03
2023-04-27T22:08:05.296Z,7.92
2023-04-27T22:10:33.313Z,7.91
2023-04-27T22:13:08.273Z,7.86
2023-04-27T22:15:46.987Z,8.01
2023-04-27T22:18:15.675Z,8.01
2023-04-27T22:20:44.066Z,7.94
2023-04-27T22:23:12.043Z,7.81
2023-04-27T22:25:42.816Z,7.75
2023-04-27T22:28:11.279Z,7.80
2023-04-27T22:30:40.756Z,7.70
2023-04-27T22:33:10.557Z,7.70
2023-04-27T22:35:38.713Z,7.66
2023-04-27T22:38:07.041Z,7.71
2023-04-27T22:40:35.102Z,7.74
2023-04-27T22:43:02.985Z,7.70
2023-04-27T22:45:31.024Z,7.70
2023-04-27T22:47:59.023Z,7.69
2023-04-27T22:50:28.345Z,7.73
2023-04-27T22:52:56.282Z,7.67
2023-04-27T22:55:24.224Z,7.64
2023-04-27T22:57:53.823Z,7.72
2023-04-27T23:00:22.086Z,7.65
2023-04-27T23:02:50.226Z,7.60
2023-04-27T23:05:18.301Z,7.62
2023-04-27T23:07:47.781Z,7.70
2023-04-27T23:10:15.715Z,7.85
2023-04-27T23:12:43.622Z,8.58
2023-04-27T23:15:12.571Z,9.21
2023-04-27T23:17:40.490Z,9.65
2023-04-27T23:20:24.029Z,8.99
2023-04-27T23:22:56.352Z,10.11
2023-04-27T23:25:24.340Z,10.13
2023-04-27T23:27:52.878Z,10.04
2023-04-27T23:30:21.840Z,10.27
2023-04-27T23:32:50.008Z,10.50
2023-04-27T23:35:18.165Z,10.56
2023-04-27T23:37:46.089Z,10.40
2023-04-27T23:40:15.489Z,10.56
2023-04-27T23:42:43.387Z,10.64
2023-04-27T23:45:12.289Z,10.42
2023-04-27T23:47:40.405Z,10.28
2023-04-27T23:50:09.170Z,10.15
2023-04-27T23:52:37.161Z,8.37
2023-04-27T23:55:05.705Z,9.88
2023-04-27T23:57:34.985Z,8.29
